Time;durP1;ratioP1;P1;durP2;ratioP2;P2;SDS_P1;SDS_P2;PMS_P1;PMS_P2;Temp;Humidity;BMP_temperature;BMP_pressure;BME280_temperature;BME280_humidity;BME280_pressure;Samples;Min_cycle;Max_cycle;Signal;HPM_P1;HPM_P2
2022/03/22 00:00:47;;;;;;;26.90;15.38;;;;;;;;;;5057620;28;20028;-73
2022/03/22 00:03:14;;;;;;;23.80;14.75;;;;;;;;;;5059435;28;20045;-72
2022/03/22 00:05:42;;;;;;;22.90;14.57;;;;;;;;;;5069545;28;20021;-74
2022/03/22 00:08:11;;;;;;;23.70;15.82;;;;;;;;;;5069067;28;20749;-72
2022/03/22 00:10:38;;;;;;;23.17;14.90;;;;;;;;;;5061353;28;20071;-72
2022/03/22 00:13:05;;;;;;;23.25;15.38;;;;;;;;;;5061452;28;20086;-73
2022/03/22 00:15:32;;;;;;;29.42;15.85;;;;;;;;;;5057488;28;20459;-73
2022/03/22 00:17:59;;;;;;;31.27;18.27;;;;;;;;;;5061491;28;20040;-72
2022/03/22 00:20:25;;;;;;;29.83;17.90;;;;;;;;;;5059226;28;20021;-72
2022/03/22 00:22:54;;;;;;;27.35;16.73;;;;;;;;;;5065987;28;20545;-73
2022/03/22 00:25:20;;;;;;;29.13;16.65;;;;;;;;;;5069757;28;20017;-72
2022/03/22 00:27:57;;;;;;;32.80;17.50;;;;;;;;;;5073360;28;20044;-74
2022/03/22 00:30:30;;;;;;;36.88;17.85;;;;;;;;;;5066292;28;20016;-73
2022/03/22 00:32:59;;;;;;;36.83;18.60;;;;;;;;;;5058650;28;20098;-73
2022/03/22 00:35:25;;;;;;;33.85;19.67;;;;;;;;;;5073147;28;20363;-72
2022/03/22 00:37:53;;;;;;;37.05;18.08;;;;;;;;;;5056067;28;20037;-73
2022/03/22 00:40:20;;;;;;;31.27;17.45;;;;;;;;;;5056904;28;20056;-72
2022/03/22 00:42:47;;;;;;;31.38;17.20;;;;;;;;;;5061832;28;20478;-72
2022/03/22 00:45:16;;;;;;;32.17;18.40;;;;;;;;;;5061164;28;20021;-72
2022/03/22 00:47:42;;;;;;;32.97;17.20;;;;;;;;;;5056103;28;20021;-72
2022/03/22 00:50:08;;;;;;;26.98;16.73;;;;;;;;;;5062744;28;20028;-73
2022/03/22 00:52:35;;;;;;;30.58;17.60;;;;;;;;;;5057156;28;20048;-72
2022/03/22 00:55:02;;;;;;;32.13;17.83;;;;;;;;;;5056753;28;20104;-74
2022/03/22 00:57:28;;;;;;;33.67;17.98;;;;;;;;;;5057259;28;20470;-74
2022/03/22 01:00:06;;;;;;;42.50;22.38;;;;;;;;;;5066195;28;20029;-73
2022/03/22 01:02:34;;;;;;;47.55;23.60;;;;;;;;;;5073451;28;20112;-73
2022/03/22 01:05:00;;;;;;;39.80;21.20;;;;;;;;;;5067644;28;20025;-73
2022/03/22 01:07:27;;;;;;;38.05;21.23;;;;;;;;;;5064034;28;20048;-72
2022/03/22 01:09:53;;;;;;;33.78;19.35;;;;;;;;;;5066300;28;20428;-73
2022/03/22 01:12:19;;;;;;;35.05;19.33;;;;;;;;;;5073519;28;20474;-73
2022/03/22 01:14:46;;;;;;;30.27;17.40;;;;;;;;;;5063125;28;20040;-74
2022/03/22 01:17:12;;;;;;;30.67;16.75;;;;;;;;;;5063148;28;20029;-73
2022/03/22 01:19:39;;;;;;;33.83;18.20;;;;;;;;;;5067327;28;20151;-72
2022/03/22 01:22:05;;;;;;;43.80;26.05;;;;;;;;;;5054892;28;20023;-72
2022/03/22 01:24:32;;;;;;;61.63;35.72;;;;;;;;;;5059922;28;20016;-72
2022/03/22 01:26:58;;;;;;;38.85;22.38;;;;;;;;;;5055993;28;20055;-72
2022/03/22 01:29:24;;;;;;;28.73;17.30;;;;;;;;;;5054284;28;20029;-72
2022/03/22 01:31:50;;;;;;;29.38;16.33;;;;;;;;;;5059010;28;20382;-72
2022/03/22 01:34:16;;;;;;;26.20;15.95;;;;;;;;;;5055304;28;20102;-72
2022/03/22 01:36:42;;;;;;;26.75;16.63;;;;;;;;;;5060367;28;20020;-73
2022/03/22 01:39:08;;;;;;;25.10;16.13;;;;;;;;;;5059213;28;20028;-73
2022/03/22 01:41:35;;;;;;;28.83;17.08;;;;;;;;;;5064543;28;20104;-72
2022/03/22 01:44:01;;;;;;;28.45;16.65;;;;;;;;;;5062463;28;20035;-72
2022/03/22 01:46:27;;;;;;;25.30;16.02;;;;;;;;;;5063533;28;20017;-73
2022/03/22 01:48:56;;;;;;;27.73;16.13;;;;;;;;;;5056683;28;20064;-73
2022/03/22 01:51:23;;;;;;;28.75;15.70;;;;;;;;;;5056502;28;20025;-73
2022/03/22 01:53:49;;;;;;;29.23;16.08;;;;;;;;;;5069184;28;20027;-73
2022/03/22 01:56:15;;;;;;;29.00;16.83;;;;;;;;;;5054727;28;20059;-73
2022/03/22 01:58:41;;;;;;;27.65;16.40;;;;;;;;;;5059502;28;20029;-72
2022/03/22 02:06:38;;;;;;;23.13;14.68;;;;;;;;;;5064955;28;20035;-72
2022/03/22 02:09:06;;;;;;;28.23;14.80;;;;;;;;;;5068302;28;20043;-72
2022/03/22 02:11:35;;;;;;;28.25;15.20;;;;;;;;;;5063169;28;20024;-73
2022/03/22 02:14:01;;;;;;;26.23;15.52;;;;;;;;;;5056797;28;20033;-72
2022/03/22 02:16:29;;;;;;;26.23;14.45;;;;;;;;;;5056390;28;20056;-72
2022/03/22 02:18:55;;;;;;;26.60;16.25;;;;;;;;;;5057536;28;20066;-72
2022/03/22 02:21:26;;;;;;;25.13;15.43;;;;;;;;;;5060753;28;20021;-73
2022/03/22 02:23:56;;;;;;;25.45;15.95;;;;;;;;;;5059140;28;20525;-72
2022/03/22 02:26:23;;;;;;;27.63;16.27;;;;;;;;;;5052863;28;20033;-72
2022/03/22 02:28:59;;;;;;;26.40;16.45;;;;;;;;;;5063519;28;20029;-72
2022/03/22 02:31:27;;;;;;;23.92;14.40;;;;;;;;;;5053672;28;20025;-72
2022/03/22 02:33:53;;;;;;;25.70;15.50;;;;;;;;;;5058187;28;20685;-72
2022/03/22 02:36:19;;;;;;;23.45;15.77;;;;;;;;;;5053042;28;20025;-72
2022/03/22 02:38:45;;;;;;;23.92;14.98;;;;;;;;;;5060599;28;20029;-72
2022/03/22 02:41:30;;;;;;;24.05;15.30;;;;;;;;;;5056909;28;20024;-72
2022/03/22 02:43:57;;;;;;;23.50;14.88;;;;;;;;;;5069228;28;20029;-71
2022/03/22 02:46:23;;;;;;;24.80;14.45;;;;;;;;;;5059150;28;20020;-72
2022/03/22 02:48:49;;;;;;;23.83;14.63;;;;;;;;;;5052432;28;20070;-73
2022/03/22 02:51:15;;;;;;;22.20;14.82;;;;;;;;;;5056589;28;20025;-72
2022/03/22 02:53:42;;;;;;;23.08;15.30;;;;;;;;;;5064405;28;20482;-72
2022/03/22 02:56:08;;;;;;;31.40;16.05;;;;;;;;;;5071556;28;20161;-73
2022/03/22 02:58:34;;;;;;;26.60;15.20;;;;;;;;;;5067345;28;20036;-73
2022/03/22 03:01:00;;;;;;;24.98;15.45;;;;;;;;;;5063281;28;20567;-72
2022/03/22 03:03:27;;;;;;;21.98;14.82;;;;;;;;;;5055231;28;20035;-72
2022/03/22 03:05:53;;;;;;;24.40;16.10;;;;;;;;;;5065358;28;20017;-73
2022/03/22 03:08:21;;;;;;;28.75;15.10;;;;;;;;;;5053618;28;20055;-72
2022/03/22 03:10:47;;;;;;;27.98;15.60;;;;;;;;;;5071800;28;20016;-74
2022/03/22 03:13:14;;;;;;;26.10;15.55;;;;;;;;;;5067034;28;20432;-72
2022/03/22 03:15:40;;;;;;;26.10;14.30;;;;;;;;;;5070966;28;20020;-72
2022/03/22 03:18:06;;;;;;;24.05;15.32;;;;;;;;;;5069349;28;20040;-73
2022/03/22 03:20:32;;;;;;;24.42;15.40;;;;;;;;;;5054685;28;20029;-73
2022/03/22 03:22:58;;;;;;;27.17;15.43;;;;;;;;;;5059277;28;20060;-73
2022/03/22 03:25:24;;;;;;;24.23;15.45;;;;;;;;;;5056040;28;20022;-72
2022/03/22 03:27:50;;;;;;;23.02;14.77;;;;;;;;;;5054298;28;20094;-72
2022/03/22 03:30:16;;;;;;;25.25;14.88;;;;;;;;;;5064282;28;20041;-72
2022/03/22 03:32:43;;;;;;;25.50;15.43;;;;;;;;;;5069617;28;20539;-72
2022/03/22 03:35:09;;;;;;;28.50;15.57;;;;;;;;;;5055092;28;20029;-72
2022/03/22 03:37:43;;;;;;;25.63;15.27;;;;;;;;;;5064196;28;20028;-72
2022/03/22 03:40:10;;;;;;;24.50;14.73;;;;;;;;;;5052206;28;20029;-72
2022/03/22 03:42:42;;;;;;;23.50;15.45;;;;;;;;;;5056854;28;20021;-72
2022/03/22 03:47:55;;;;;;;22.15;14.45;;;;;;;;;;5058187;28;20575;-73
2022/03/22 03:50:21;;;;;;;22.13;14.52;;;;;;;;;;5057246;28;20033;-72
2022/03/22 03:52:47;;;;;;;23.45;14.38;;;;;;;;;;5055265;28;20028;-73
2022/03/22 03:55:13;;;;;;;25.35;15.35;;;;;;;;;;5065912;28;20071;-73
2022/03/22 03:57:43;;;;;;;27.95;15.65;;;;;;;;;;5057060;28;20134;-73
2022/03/22 04:00:09;;;;;;;36.85;21.52;;;;;;;;;;5053270;28;20044;-72
2022/03/22 04:02:35;;;;;;;34.80;19.27;;;;;;;;;;5054120;28;20459;-72
2022/03/22 04:05:04;;;;;;;30.98;19.10;;;;;;;;;;5060234;28;20029;-72
2022/03/22 04:07:30;;;;;;;32.13;19.60;;;;;;;;;;5060960;28;20069;-73
2022/03/22 04:09:56;;;;;;;27.60;17.42;;;;;;;;;;5053266;28;20056;-73
2022/03/22 04:12:22;;;;;;;26.73;16.48;;;;;;;;;;5057148;28;20021;-71
2022/03/22 04:14:51;;;;;;;28.02;17.08;;;;;;;;;;5064562;28;20020;-72
2022/03/22 04:17:20;;;;;;;28.30;16.40;;;;;;;;;;5058280;28;20021;-71
2022/03/22 04:19:48;;;;;;;29.13;14.32;;;;;;;;;;5060723;28;20098;-73
2022/03/22 04:22:16;;;;;;;24.13;14.93;;;;;;;;;;5059846;28;20043;-72
2022/03/22 04:24:42;;;;;;;22.92;13.93;;;;;;;;;;5054335;28;20029;-72
2022/03/22 04:32:43;;;;;;;23.67;15.35;;;51.70;2227.20;;;;;;5073639;28;20508;-74
2022/03/22 04:35:18;;;;;;;25.48;14.73;;;51.70;1843.20;;;;;;5057262;28;20474;-72
2022/03/22 04:37:49;;;;;;;23.83;15.32;;;;;;;;;;5059810;28;20039;-71
2022/03/22 04:40:16;;;;;;;27.92;17.05;;;;;;;;;;5066939;28;20074;-72
2022/03/22 04:42:42;;;;;;;32.42;19.13;;;;;;;;;;5074315;28;20027;-72
2022/03/22 04:45:09;;;;;;;36.45;21.88;;;;;;;;;;5056525;28;20104;-72
2022/03/22 04:47:35;;;;;;;39.17;23.25;;;;;;;;;;5060006;28;20021;-72
2022/03/22 04:50:02;;;;;;;42.25;23.83;;;;;;;;;;5069587;28;20032;-72
2022/03/22 04:57:55;;;;;;;;;;;51.40;1817.60;;;;;;5057159;28;20044;-71
2022/03/22 05:00:21;;;;;;;47.40;24.17;;;51.40;1843.20;;;;;;5063335;28;19913;-72
2022/03/22 05:02:50;;;;;;;40.78;24.98;;;51.40;1843.20;;;;;;5055891;28;20044;-73
2022/03/22 05:06:25;;;;;;;45.60;24.98;;;51.50;1792.00;;;;;;5055634;28;20421;-74
2022/03/22 05:08:01;;;;;;;42.25;23.75;;;51.50;1843.20;;;;;;5061787;28;20115;-71
2022/03/22 05:10:27;;;;;;;36.63;21.95;;;51.70;1817.60;;;;;;5061565;28;20108;-71
2022/03/22 05:12:53;;;;;;;41.00;23.02;;;52.00;1792.00;;;;;;5054588;28;20079;-72
2022/03/22 05:15:26;;;;;;;38.08;23.10;;;76.90;1766.40;;;;;;5056466;28;20500;-71
2022/03/22 05:17:52;;;;;;;35.15;21.67;;;;;;;;;;5066810;28;20040;-71
2022/03/22 05:20:18;;;;;;;37.75;23.27;;;;;;;;;;5063329;28;20082;-75
2022/03/22 05:22:44;;;;;;;40.65;23.23;;;;;;;;;;5072521;28;20063;-72
2022/03/22 05:25:13;;;;;;;40.65;23.48;;;;;;;;;;5067269;28;20103;-71
2022/03/22 05:27:39;;;;;;;38.25;22.85;;;;;;;;;;5070565;28;20102;-72
2022/03/22 05:30:06;;;;;;;36.67;21.30;;;;;;;;;;5061609;28;20033;-71
2022/03/22 05:32:32;;;;;;;36.08;20.63;;;;;;;;;;5069396;28;20024;-72
2022/03/22 05:34:58;;;;;;;47.88;21.38;;;;;;;;;;5068907;28;20502;-72
2022/03/22 05:37:24;;;;;;;48.13;23.08;;;;;;;;;;5061278;28;20467;-71
2022/03/22 05:39:50;;;;;;;60.50;24.20;;;;;;;;;;5066009;28;20032;-71
2022/03/22 05:42:16;;;;;;;50.58;24.70;;;;;;;;;;5061604;28;20118;-73
2022/03/22 05:44:47;;;;;;;50.83;25.13;;;;;;;;;;5066688;28;20020;-73
2022/03/22 05:47:13;;;;;;;43.85;24.20;;;;;;;;;;5062851;28;20109;-71
2022/03/22 05:49:40;;;;;;;40.25;23.58;;;;;;;;;;5070876;28;20020;-73
2022/03/22 05:52:06;;;;;;;36.65;20.60;;;;;;;;;;5066630;28;20121;-75
2022/03/22 05:54:33;;;;;;;32.75;18.38;;;;;;;;;;5068291;28;20474;-72
2022/03/22 05:56:59;;;;;;;28.88;17.77;;;;;;;;;;5060282;28;20051;-74
2022/03/22 05:59:25;;;;;;;29.20;18.48;;;;;;;;;;5054399;28;20124;-71
2022/03/22 06:01:52;;;;;;;27.30;18.50;;;;;;;;;;5065004;28;20064;-82
2022/03/22 06:04:19;;;;;;;27.90;18.55;;;;;;;;;;5069645;28;20020;-81
2022/03/22 06:06:47;;;;;;;27.70;19.30;;;;;;;;;;5067160;28;20459;-78
2022/03/22 06:09:13;;;;;;;32.22;19.55;;;;;;;;;;5062002;28;20021;-80
2022/03/22 06:11:39;;;;;;;36.05;19.98;;;;;;;;;;5070535;28;20024;-75
2022/03/22 06:14:06;;;;;;;29.13;20.15;;;;;;;;;;5070793;28;20078;-82
2022/03/22 06:16:32;;;;;;;25.60;19.20;;;;;;;;;;5066053;28;20098;-75
2022/03/22 06:18:58;;;;;;;26.98;18.52;;;;;;;;;;5064234;28;20029;-90
2022/03/22 06:21:25;;;;;;;29.10;21.48;;;;;;;;;;5064102;28;20021;-74
2022/03/22 06:23:51;;;;;;;31.95;21.85;;;;;;;;;;5062514;28;20025;-74
2022/03/22 06:26:18;;;;;;;32.03;22.00;;;;;;;;;;5062725;28;20032;-75
2022/03/22 06:28:44;;;;;;;33.08;23.60;;;;;;;;;;5065268;28;20033;-72
2022/03/22 06:31:10;;;;;;;34.53;23.20;;;;;;;;;;5066544;28;20025;-72
2022/03/22 06:33:36;;;;;;;31.35;23.33;;;;;;;;;;5067128;28;20470;-75
2022/03/22 06:36:04;;;;;;;35.47;24.30;;;;;;;;;;5060930;28;20029;-74
2022/03/22 06:38:33;;;;;;;34.10;23.20;;;;;;;;;;5067691;28;20107;-76
2022/03/22 06:40:59;;;;;;;40.72;26.08;;;;;;;;;;5064403;28;20128;-75
2022/03/22 06:43:25;;;;;;;42.97;28.00;;;;;;;;;;5063758;28;20025;-76
2022/03/22 06:45:51;;;;;;;35.78;26.27;;;;;;;;;;5059148;28;20020;-75
2022/03/22 06:48:18;;;;;;;37.90;29.60;;;;;;;;;;5060811;28;20041;-86
2022/03/22 06:50:45;;;;;;;42.55;29.50;;;;;;;;;;5058768;28;20505;-81
2022/03/22 06:53:11;;;;;;;48.50;30.88;;;;;;;;;;5064974;28;20521;-85
2022/03/22 06:55:37;;;;;;;47.35;32.67;;;;;;;;;;5066174;28;20099;-78
2022/03/22 06:58:04;;;;;;;64.32;39.92;;;;;;;;;;5061796;28;20020;-89
2022/03/22 07:00:31;;;;;;;55.50;37.22;;;;;;;;;;5062987;28;20474;-73
2022/03/22 07:02:58;;;;;;;53.97;35.63;;;;;;;;;;5063938;28;20139;-73
2022/03/22 07:05:24;;;;;;;53.15;35.92;;;;;;;;;;5062263;28;20032;-75
2022/03/22 07:07:50;;;;;;;55.58;36.35;;;;;;;;;;5062708;28;20029;-74
2022/03/22 07:10:17;;;;;;;53.03;36.25;;;;;;;;;;5062669;28;20024;-76
2022/03/22 07:12:52;;;;;;;54.97;39.88;;;;;;;;;;5057121;28;20023;-75
2022/03/22 07:15:19;;;;;;;63.75;42.53;;;;;;;;;;5065797;28;20085;-78
2022/03/22 07:17:46;;;;;;;58.63;40.83;;;;;;;;;;5061091;28;20029;-75
2022/03/22 07:20:12;;;;;;;65.68;48.50;;;;;;;;;;5061781;28;20024;-73
2022/03/22 07:22:38;;;;;;;64.05;41.55;;;;;;;;;;5063401;28;20104;-77
2022/03/22 07:25:04;;;;;;;59.15;40.15;;;;;;;;;;5062973;28;20033;-75
2022/03/22 07:27:30;;;;;;;68.47;50.63;;;;;;;;;;5064906;28;20123;-76
2022/03/22 07:29:57;;;;;;;54.53;39.97;;;;;;;;;;5057001;28;20042;-75
2022/03/22 07:32:24;;;;;;;52.38;34.88;;;;;;;;;;5055627;28;20066;-75
2022/03/22 07:34:50;;;;;;;51.03;34.00;;;;;;;;;;5069630;28;20108;-78
2022/03/22 07:37:17;;;;;;;52.22;35.65;;;;;;;;;;5065711;28;20494;-81
2022/03/22 07:39:43;;;;;;;51.95;35.45;;;;;;;;;;5065315;28;20095;-77
2022/03/22 07:42:09;;;;;;;49.13;34.33;;;;;;;;;;5059808;28;20040;-76
2022/03/22 07:44:35;;;;;;;50.17;35.38;;;;;;;;;;5065882;28;20028;-75
2022/03/22 07:47:03;;;;;;;50.67;34.80;;;;;;;;;;5057194;28;20066;-77
2022/03/22 07:54:59;;;;;;;46.35;32.83;;;;;;;;;;5065323;28;20039;-77
2022/03/22 07:57:27;;;;;;;51.28;33.72;;;;;;;;;;5064937;28;20036;-76
2022/03/22 07:59:53;;;;;;;46.50;31.55;;;;;;;;;;5063463;28;20147;-77
2022/03/22 08:02:19;;;;;;;45.33;32.45;;;;;;;;;;5067922;28;20056;-80
2022/03/22 08:04:46;;;;;;;42.65;31.52;;;;;;;;;;5069200;28;20090;-79
2022/03/22 08:07:12;;;;;;;46.05;32.17;;;;;;;;;;5070829;28;20044;-80
2022/03/22 08:09:38;;;;;;;47.15;32.45;;;;;;;;;;5065310;28;20028;-75
2022/03/22 08:12:04;;;;;;;42.67;32.17;;;;;;;;;;5058816;28;20025;-77
2022/03/22 08:14:30;;;;;;;45.05;29.98;;;;;;;;;;5067583;28;20016;-77
2022/03/22 08:16:56;;;;;;;47.42;31.25;;;;;;;;;;5062327;28;20190;-78
2022/03/22 08:19:24;;;;;;;42.13;29.58;;;;;;;;;;5064846;28;20024;-77
2022/03/22 08:21:51;;;;;;;47.38;32.83;;;;;;;;;;5062695;28;20478;-82
2022/03/22 08:24:17;;;;;;;45.30;30.38;;;;;;;;;;5062635;28;20036;-79
2022/03/22 08:26:44;;;;;;;47.33;29.13;;;;;;;;;;5071086;28;20056;-82
2022/03/22 08:29:10;;;;;;;43.53;28.80;;;;;;;;;;5066575;28;20068;-72
2022/03/22 08:31:36;;;;;;;38.13;27.80;;;;;;;;;;5067912;28;20029;-77
2022/03/22 08:34:03;;;;;;;42.60;27.30;;;;;;;;;;5064894;28;20024;-78
2022/03/22 08:36:29;;;;;;;38.10;26.10;;;;;;;;;;5068147;28;20473;-76
2022/03/22 08:38:57;;;;;;;37.35;26.23;;;;;;;;;;5062961;28;20521;-75
2022/03/22 08:41:23;;;;;;;34.28;25.85;;;;;;;;;;5063230;28;20028;-75
2022/03/22 08:43:49;;;;;;;39.90;27.02;;;;;;;;;;5066891;28;20570;-74
2022/03/22 08:46:16;;;;;;;37.90;26.45;;;;;;;;;;5069347;28;20016;-74
2022/03/22 08:48:42;;;;;;;37.80;25.23;;;;;;;;;;5060842;28;20033;-76
2022/03/22 08:51:08;;;;;;;32.45;25.08;;;;;;;;;;5066569;28;20029;-75
2022/03/22 08:53:34;;;;;;;34.40;24.60;;;;;;;;;;5060676;28;20025;-76
2022/03/22 08:56:03;;;;;;;41.63;25.35;;;;;;;;;;5071687;28;20021;-73
2022/03/22 08:58:32;;;;;;;57.85;34.92;;;;;;;;;;5061210;28;20138;-83
2022/03/22 09:00:59;;;;;;;39.55;26.80;;;;;;;;;;5058135;28;20033;-71
2022/03/22 09:03:26;;;;;;;43.65;25.60;;;;;;;;;;5068982;28;20024;-87
2022/03/22 09:06:07;;;;;;;37.85;24.75;;;;;;;;;;5073155;28;20504;-74
2022/03/22 09:08:34;;;;;;;38.20;25.05;;;;;;;;;;5063323;28;20508;-83
2022/03/22 09:11:00;;;;;;;55.88;35.67;;;;;;;;;;5064782;28;20158;-74
2022/03/22 09:13:28;;;;;;;58.67;37.88;;;;;;;;;;5066437;28;20052;-84
2022/03/22 09:15:55;;;;;;;41.80;25.85;;;;;;;;;;5066675;28;20032;-81
2022/03/22 09:18:21;;;;;;;40.45;25.50;;;;;;;;;;5064143;28;20021;-83
2022/03/22 09:20:48;;;;;;;37.45;25.77;;;;;;;;;;5068044;28;20028;-79
2022/03/22 09:23:14;;;;;;;34.90;23.70;;;;;;;;;;5061940;28;20020;-73
2022/03/22 09:25:41;;;;;;;36.70;24.00;;;;;;;;;;5066791;28;20906;-78
2022/03/22 09:28:08;;;;;;;42.95;23.85;;;;;;;;;;5066609;28;20041;-74
2022/03/22 09:30:34;;;;;;;37.67;23.15;;;;;;;;;;5069425;28;20066;-74
2022/03/22 09:33:02;;;;;;;34.80;22.38;;;;;;;;;;5061233;28;20139;-74
2022/03/22 09:35:28;;;;;;;34.25;24.00;;;;;;;;;;5067684;28;20024;-82
2022/03/22 09:37:54;;;;;;;46.67;25.95;;;;;;;;;;5066990;28;20119;-78
2022/03/22 09:40:22;;;;;;;46.10;27.55;;;;;;;;;;5063466;28;20154;-80
2022/03/22 09:42:48;;;;;;;34.22;22.42;;;;;;;;;;5069453;28;20032;-82
2022/03/22 09:45:15;;;;;;;32.28;21.35;;;;;;;;;;5069954;28;20398;-75
2022/03/22 09:47:42;;;;;;;39.67;22.48;;;;;;;;;;5061565;28;20021;-79
2022/03/22 09:50:09;;;;;;;35.45;20.90;;;;;;;;;;5061257;28;20470;-77
2022/03/22 09:52:36;;;;;;;30.35;20.17;;;;;;;;;;5061249;28;20036;-83
2022/03/22 09:55:03;;;;;;;33.47;21.98;;;;;;;;;;5059238;28;20029;-82
2022/03/22 09:57:29;;;;;;;43.92;26.52;;;;;;;;;;5061214;28;20025;-73
2022/03/22 09:59:55;;;;;;;33.38;21.90;;;;;;;;;;5067419;28;20025;-86
2022/03/22 10:02:28;;;;;;;35.40;22.13;;;;;;;;;;5066871;28;20096;-74
2022/03/22 10:05:00;;;;;;;33.50;20.40;;;;;;;;;;5062994;28;20032;-73
2022/03/22 10:07:29;;;;;;;30.13;20.02;;;;;;;;;;5055929;28;20021;-77
2022/03/22 10:09:55;;;;;;;26.02;18.63;;;;;;;;;;5059461;28;20117;-71
2022/03/22 10:12:31;;;;;;;30.15;19.08;;;;;;;;;;5065127;28;20505;-78
2022/03/22 10:15:24;;;;;;;32.33;20.23;;;;;;;;;;5065174;28;20086;-76
2022/03/22 10:18:04;;;;;;;37.42;20.83;;;;;;;;;;5060860;28;20041;-80
2022/03/22 10:20:34;;;;;;;32.80;20.95;;;;;;;;;;5062310;28;20031;-85
2022/03/22 10:23:01;;;;;;;37.10;20.42;;;;;;;;;;5067531;28;20149;-71
2022/03/22 10:25:31;;;;;;;29.98;19.75;;;;;;;;;;5062527;28;20024;-81
2022/03/22 10:27:57;;;;;;;29.50;18.35;;;;;;;;;;5053282;28;20075;-85
2022/03/22 10:30:23;;;;;;;26.23;18.02;;;;;;;;;;5065658;28;20017;-74
2022/03/22 10:32:53;;;;;;;24.80;16.83;;;;;;;;;;5058199;28;20037;-71
2022/03/22 10:35:20;;;;;;;27.95;15.88;;;;;;;;;;5061030;28;20038;-77
2022/03/22 10:37:51;;;;;;;29.60;17.05;;;;;;;;;;5065830;28;20031;-70
2022/03/22 10:40:29;;;;;;;23.67;17.05;;;;;;;;;;5067199;28;20032;-83
2022/03/22 10:42:59;;;;;;;27.00;17.02;;;;;;;;;;5061220;28;20128;-74
2022/03/22 10:45:27;;;;;;;29.98;18.92;;;;;;;;;;5071761;28;20020;-72
2022/03/22 10:47:53;;;;;;;31.40;18.77;;;;;;;;;;5060834;28;20101;-77
2022/03/22 10:50:20;;;;;;;28.40;15.35;;;;;;;;;;5065159;28;20024;-76
2022/03/22 10:52:50;;;;;;;24.17;14.40;;;;;;;;;;5067695;28;20016;-82
2022/03/22 10:55:20;;;;;;;23.88;15.25;;;;;;;;;;5059769;28;20032;-69
2022/03/22 10:57:53;;;;;;;26.48;16.58;;;;;;;;;;5063728;28;20417;-74
2022/03/22 11:00:19;;;;;;;;;;;;;;;;;;5064753;28;20036;-75
2022/03/22 11:02:49;;;;;;;24.77;14.68;;;;;;;;;;5067647;28;20309;-81
2022/03/22 11:05:19;;;;;;;20.42;14.07;;;;;;;;;;5058797;28;20025;-74
2022/03/22 11:07:56;;;;;;;32.92;16.88;;;;;;;;;;5061143;28;20152;-71
2022/03/22 11:10:29;;;;;;;30.40;12.77;;;;;;;;;;5055528;28;20087;-74
2022/03/22 11:12:58;;;;;;;16.75;11.82;;;;;;;;;;5061360;28;20029;-73
2022/03/22 11:15:24;;;;;;;20.05;12.27;;;;;;;;;;5059618;28;20025;-73
2022/03/22 11:17:53;;;;;;;32.75;17.30;;;;;;;;;;5062164;28;20371;-75
2022/03/22 11:20:19;;;;;;;30.67;16.02;;;;;;;;;;5065876;28;20069;-73
2022/03/22 11:22:49;;;;;;;19.92;11.95;;;;;;;;;;5064057;28;20025;-71
2022/03/22 11:25:18;;;;;;;17.48;10.60;;;;;;;;;;5062364;28;20489;-71
2022/03/22 11:27:56;;;;;;;16.67;11.02;;;;;;;;;;5055124;28;20036;-71
2022/03/22 11:30:31;;;;;;;21.27;11.32;;;;;;;;;;5069203;28;20478;-71
2022/03/22 11:36:21;;;;;;;16.40;9.80;;;;;;;;;;5065067;28;20125;-71
2022/03/22 11:38:55;;;;;;;27.67;15.65;;;;;;;;;;5066440;28;20029;-71
2022/03/22 11:44:20;;;;;;;14.73;9.00;;;;;;;;;;5067639;28;20490;-71
2022/03/22 11:46:48;;;;;;;13.55;9.80;;;;;;;;;;5071322;28;20549;-71
2022/03/22 11:49:15;;;;;;;16.65;8.85;;;;;;;;;;5069660;28;20032;-70
2022/03/22 11:52:11;;;;;;;13.18;9.23;;;;;;;;;;5068367;28;20077;-70
2022/03/22 11:54:37;;;;;;;15.13;9.85;;;;;;;;;;5003719;28;20042;-72
2022/03/22 11:57:04;;;;;;;14.73;9.32;;;;;;;;;;5004460;28;20065;-78
2022/03/22 11:59:41;;;;;;;20.83;9.98;;;;;;;;;;5007868;28;20042;-82
2022/03/22 12:02:17;;;;;;;32.45;9.55;;;;;;;;;;5003895;28;20136;-77
2022/03/22 12:04:45;;;;;;;26.35;10.40;;;;;;;;;;5005027;28;20419;-85
2022/03/22 12:07:12;;;;;;;14.00;9.15;;;;;;;;;;5009995;28;20488;-78
2022/03/22 12:09:38;;;;;;;15.73;9.80;;;;;;;;;;5009595;28;20045;-87
2022/03/22 12:12:06;;;;;;;21.05;13.32;;;;;;;;;;5007124;28;20249;-82
2022/03/22 12:14:34;;;;;;;12.30;8.98;;;;;;;;;;5002069;28;20569;-73
2022/03/22 12:17:00;;;;;;;13.90;9.15;;;;;;;;;;4993498;28;20038;-73
2022/03/22 12:19:34;;;;;;;15.93;9.15;;;;;;;;;;5008443;28;20041;-72
2022/03/22 12:22:01;;;;;;;16.15;9.50;;;;;;;;;;4998547;28;20484;-81
2022/03/22 12:24:32;;;;;;;16.77;10.15;;;;;;;;;;5003789;28;20081;-74
2022/03/22 12:26:59;;;;;;;14.75;8.95;;;;;;;;;;5000067;28;20082;-75
2022/03/22 12:29:25;;;;;;;17.20;9.88;;;;;;;;;;5004116;28;20065;-71
2022/03/22 12:31:52;;;;;;;16.80;9.00;;;;;;;;;;5052421;28;20033;-71
2022/03/22 12:34:18;;;;;;;16.35;9.35;;;;;;;;;;5067557;28;20024;-72
2022/03/22 12:36:45;;;;;;;12.73;8.85;;;;;;;;;;5071251;28;20044;-74
2022/03/22 12:39:12;;;;;;;16.45;8.93;;;;;;;;;;5064300;28;20072;-73
2022/03/22 12:41:38;;;;;;;15.25;9.65;;;;;;;;;;5068666;28;20020;-72
2022/03/22 12:44:07;;;;;;;14.00;9.05;;;;;;;;;;5067052;28;20060;-72
2022/03/22 12:46:33;;;;;;;13.50;9.18;;;;;;;;;;5064292;28;20045;-71
2022/03/22 12:49:00;;;;;;;22.83;9.80;;;;;;;;;;5071218;28;20040;-72
2022/03/22 12:51:26;;;;;;;14.00;8.98;;;;;;;;;;5064764;28;20029;-75
2022/03/22 12:53:53;;;;;;;14.07;9.20;;;;;;;;;;5065777;28;20440;-72
2022/03/22 12:56:21;;;;;;;20.13;10.32;;;;;;;;;;5064238;28;20025;-73
2022/03/22 12:58:49;;;;;;;19.17;9.52;;;;;;;;;;5066899;28;20052;-71
2022/03/22 13:01:15;;;;;;;22.85;9.57;;;;;;;;;;5061854;28;20360;-71
2022/03/22 13:03:42;;;;;;;14.32;9.27;;;;;;;;;;5070656;28;20401;-71
2022/03/22 13:06:08;;;;;;;15.02;9.75;;;;;;;;;;5070379;28;20021;-72
2022/03/22 13:11:29;;;;;;;13.35;9.05;;;;;;;;;;5067422;28;20035;-73
2022/03/22 13:16:51;;;;;;;18.70;10.20;;;;;;;;;;5067614;28;20043;-73
2022/03/22 13:19:17;;;;;;;35.67;10.50;;;;;;;;;;5065045;28;20095;-72
2022/03/22 13:21:43;;;;;;;16.70;8.90;;;;;;;;;;5055084;28;20035;-75
2022/03/22 13:24:12;;;;;;;19.48;11.00;;;;;;;;;;5063389;28;20031;-72
2022/03/22 13:26:39;;;;;;;14.05;9.05;;;;;;;;;;5066923;28;20045;-75
2022/03/22 13:29:15;;;;;;;15.40;10.30;;;;;;;;;;5066634;28;20032;-73
2022/03/22 13:31:57;;;;;;;17.77;10.52;;;;;;;;;;5057247;28;20421;-71
2022/03/22 13:34:25;;;;;;;16.08;10.60;;;;;;;;;;5062107;28;20111;-71
2022/03/22 13:36:51;;;;;;;22.65;12.57;;;;;;;;;;5065235;28;20445;-73
2022/03/22 13:39:24;;;;;;;15.40;9.80;;;;;;;;;;5071903;28;20032;-77
2022/03/22 13:41:50;;;;;;;30.27;10.73;;;;;;;;;;5061192;28;20017;-75
2022/03/22 13:44:28;;;;;;;14.13;10.40;;;;;;;;;;5068934;28;20055;-75
2022/03/22 13:46:59;;;;;;;19.75;12.25;;;;;;;;;;5067854;28;20020;-75
2022/03/22 13:49:33;;;;;;;21.52;12.10;;;;;;;;;;5067529;28;20044;-79
2022/03/22 13:52:00;;;;;;;18.40;11.80;;;;;;;;;;5055873;28;20434;-71
2022/03/22 13:54:26;;;;;;;20.05;11.68;;;;;;;;;;5062771;28;20040;-73
2022/03/22 13:56:55;;;;;;;24.27;11.70;;;;;;;;;;5070177;28;20355;-69
2022/03/22 13:59:25;;;;;;;20.02;11.73;;;;;;;;;;5065734;28;20032;-77
2022/03/22 14:01:52;;;;;;;22.45;11.68;;;;;;;;;;5059158;28;20040;-82
2022/03/22 14:04:18;;;;;;;19.40;11.45;;;;;;;;;;5071750;28;20491;-74
2022/03/22 14:06:44;;;;;;;17.05;11.10;;;;;;;;;;5063764;28;20033;-72
2022/03/22 14:09:10;;;;;;;17.40;11.30;;;;;;;;;;5067648;28;20040;-73
2022/03/22 14:11:37;;;;;;;19.85;12.73;;;;;;;;;;5069255;28;20110;-72
2022/03/22 14:14:03;;;;;;;21.73;12.48;;;;;;;;;;5071880;28;20028;-76
2022/03/22 14:16:29;;;;;;;18.60;11.32;;;;;;;;;;5057136;28;20162;-79
2022/03/22 14:18:55;;;;;;;17.02;9.02;;;;;;;;;;5064879;28;20032;-72
2022/03/22 14:21:21;;;;;;;16.15;10.35;;;;;;;;;;5057628;28;20025;-73
2022/03/22 14:23:48;;;;;;;17.42;9.35;;;;;;;;;;5061807;28;20040;-73
2022/03/22 14:26:14;;;;;;;15.18;8.73;;;;;;;;;;5070598;28;20060;-75
2022/03/22 14:28:40;;;;;;;15.30;8.82;;;;;;;;;;5066700;28;20024;-79
2022/03/22 14:31:06;;;;;;;16.95;8.25;;;;;;;;;;5066269;28;20032;-74
2022/03/22 14:33:32;;;;;;;14.02;8.65;;;;;;;;;;5065899;28;20029;-78
2022/03/22 14:35:58;;;;;;;14.98;8.93;;;;;;;;;;5072444;28;20036;-74
2022/03/22 14:38:27;;;;;;;14.52;8.60;;;;;;;;;;5067372;28;20029;-74
2022/03/22 14:40:54;;;;;;;14.27;7.95;;;;;;;;;;5064241;28;20478;-77
2022/03/22 14:43:23;;;;;;;13.65;8.32;;;;;;;;;;5065291;28;20149;-76
2022/03/22 14:45:49;;;;;;;16.55;8.48;;;;;;;;;;5070347;28;20100;-74
2022/03/22 14:48:19;;;;;;;27.33;9.25;;;;;;;;;;5062270;28;20029;-76
2022/03/22 14:50:48;;;;;;;20.38;9.52;;;;;;;;;;5060161;28;20036;-75
2022/03/22 14:58:59;;;;;;;15.63;8.98;;;;;;;;;;5067993;28;20040;-77
2022/03/22 15:01:26;;;;;;;17.35;8.95;;;;;;;;;;5060338;28;20024;-73